createdAt,value
2017-09-11T00:01:36.479Z,18.30
2017-09-11T00:04:02.868Z,18.20
2017-09-11T00:06:29.292Z,18.20
2017-09-11T00:08:55.688Z,18.20
2017-09-11T00:11:22.062Z,18.30
2017-09-11T00:13:48.474Z,18.20
2017-09-11T00:16:14.883Z,18.20
2017-09-11T00:18:41.265Z,18.20
2017-09-11T00:21:07.662Z,18.10
2017-09-11T00:23:34.053Z,18.10
2017-09-11T00:26:00.472Z,18.10
2017-09-11T00:28:26.866Z,18.10
2017-09-11T00:30:53.277Z,18.00
2017-09-11T00:33:19.706Z,18.00
2017-09-11T00:35:46.115Z,17.90
2017-09-11T00:38:13.239Z,18.00
2017-09-11T00:40:39.667Z,18.00
2017-09-11T00:43:06.035Z,18.00
2017-09-11T00:45:33.196Z,18.00
2017-09-11T00:48:00.371Z,18.00
2017-09-11T00:50:26.830Z,18.00
2017-09-11T00:52:53.337Z,17.90
2017-09-11T00:55:19.783Z,17.90
2017-09-11T00:57:46.183Z,17.90
2017-09-11T01:00:12.623Z,17.80
2017-09-11T01:02:39.029Z,17.80
2017-09-11T01:05:06.139Z,17.70
2017-09-11T01:07:32.548Z,17.70
2017-09-11T01:09:59.000Z,17.70
2017-09-11T01:12:25.391Z,17.70
2017-09-11T01:14:52.530Z,17.60
2017-09-11T01:17:19.703Z,17.60
2017-09-11T01:19:46.143Z,17.60
2017-09-11T01:22:12.567Z,17.60
2017-09-11T01:24:39.026Z,17.50
2017-09-11T01:27:05.480Z,17.50
2017-09-11T01:29:31.890Z,17.60
2017-09-11T01:31:58.363Z,17.60
2017-09-11T01:34:24.737Z,17.60
2017-09-11T01:36:51.120Z,17.50
2017-09-11T01:39:17.567Z,17.60
2017-09-11T01:41:44.679Z,17.50
2017-09-11T01:44:11.049Z,17.50
2017-09-11T01:46:38.243Z,17.50
2017-09-11T01:49:04.624Z,17.40
2017-09-11T01:51:31.822Z,17.50
2017-09-11T01:53:58.199Z,17.50
2017-09-11T01:56:24.584Z,17.40
2017-09-11T01:58:51.019Z,17.40
2017-09-11T02:01:17.411Z,17.30
2017-09-11T02:03:44.567Z,17.20
2017-09-11T02:06:11.737Z,17.20
2017-09-11T02:08:38.139Z,17.20
2017-09-11T02:11:04.545Z,17.20
2017-09-11T02:13:30.928Z,17.20
2017-09-11T02:15:57.378Z,17.20
2017-09-11T02:18:23.755Z,17.10
2017-09-11T02:20:50.176Z,17.20
2017-09-11T02:23:16.600Z,17.20
2017-09-11T02:25:43.016Z,17.30
2017-09-11T02:28:09.446Z,17.20
2017-09-11T02:30:35.847Z,17.30
2017-09-11T02:33:03.003Z,17.30
2017-09-11T02:35:29.426Z,17.30
2017-09-11T02:37:56.543Z,17.40
2017-09-11T02:40:22.988Z,17.40
2017-09-11T02:42:49.404Z,17.50
2017-09-11T02:45:15.791Z,17.50
2017-09-11T02:47:42.220Z,17.40
2017-09-11T02:50:08.599Z,17.40
2017-09-11T02:52:35.007Z,17.40
2017-09-11T02:55:01.391Z,17.40
2017-09-11T02:57:28.535Z,17.30
2017-09-11T02:59:54.919Z,17.20
2017-09-11T03:02:21.287Z,17.20
2017-09-11T03:04:47.759Z,17.20
2017-09-11T03:07:14.159Z,17.20
2017-09-11T03:09:40.564Z,17.20
2017-09-11T03:12:06.952Z,17.20
2017-09-11T03:14:34.127Z,17.30
2017-09-11T03:17:00.563Z,17.20
2017-09-11T03:19:27.008Z,17.20
2017-09-11T03:21:53.423Z,17.20
2017-09-11T03:24:19.799Z,17.20
2017-09-11T03:26:46.181Z,17.20
2017-09-11T03:29:12.555Z,17.20
2017-09-11T03:31:38.960Z,17.10
2017-09-11T03:34:05.359Z,17.10
2017-09-11T03:36:31.767Z,17.00
2017-09-11T03:38:58.175Z,17.10
2017-09-11T03:41:25.288Z,17.00
2017-09-11T03:43:51.683Z,17.00
2017-09-11T03:46:18.122Z,17.00
2017-09-11T03:48:44.492Z,16.90
2017-09-11T03:51:10.859Z,17.00
2017-09-11T03:53:37.267Z,17.10
2017-09-11T03:56:03.655Z,17.10
2017-09-11T03:58:30.080Z,17.10
2017-09-11T04:00:56.461Z,17.10
2017-09-11T04:03:22.847Z,17.10
2017-09-11T04:05:49.320Z,17.10
2017-09-11T04:08:15.783Z,17.10
2017-09-11T04:10:42.192Z,17.10
2017-09-11T04:13:08.595Z,17.10
2017-09-11T04:15:35.732Z,17.20
2017-09-11T04:18:02.963Z,17.20
2017-09-11T04:20:29.339Z,17.20
2017-09-11T04:22:55.743Z,17.30
2017-09-11T04:25:22.123Z,17.30
2017-09-11T04:27:48.548Z,17.20
2017-09-11T04:30:14.962Z,17.20
2017-09-11T04:32:41.338Z,17.20
2017-09-11T04:35:07.769Z,17.30
2017-09-11T04:37:34.144Z,17.20
2017-09-11T04:40:01.271Z,17.40
2017-09-11T04:42:27.723Z,17.40
2017-09-11T04:44:54.872Z,17.40
2017-09-11T04:47:22.035Z,17.40
2017-09-11T04:49:49.180Z,17.40
2017-09-11T04:52:16.431Z,17.50
2017-09-11T04:54:43.563Z,17.40
2017-09-11T04:57:09.959Z,17.40
2017-09-11T04:59:36.359Z,17.40
2017-09-11T05:02:03.476Z,17.50
2017-09-11T05:04:29.931Z,17.50
2017-09-11T05:06:57.143Z,17.70
2017-09-11T05:09:23.561Z,17.70
2017-09-11T05:11:49.943Z,17.70
2017-09-11T05:14:17.119Z,17.70
2017-09-11T05:16:43.561Z,17.70
2017-09-11T05:19:09.979Z,17.70
2017-09-11T05:21:36.360Z,17.70
2017-09-11T05:24:02.815Z,17.70
2017-09-11T05:26:29.951Z,17.70
2017-09-11T05:28:56.356Z,17.70
2017-09-11T05:31:22.784Z,17.80
2017-09-11T05:33:49.219Z,17.90
2017-09-11T05:36:15.700Z,17.90
2017-09-11T05:38:42.926Z,17.90
2017-09-11T05:41:10.072Z,17.90
2017-09-11T05:43:36.459Z,17.90
2017-09-11T05:46:02.850Z,17.90
2017-09-11T05:48:29.243Z,17.90
2017-09-11T05:50:55.648Z,17.90
2017-09-11T05:53:22.122Z,17.90
2017-09-11T05:55:49.259Z,18.00
2017-09-11T05:58:15.631Z,18.00
2017-09-11T06:00:42.058Z,18.10
2017-09-11T06:03:08.468Z,18.00
2017-09-11T06:05:34.896Z,18.10
2017-09-11T06:08:01.325Z,18.00
2017-09-11T06:10:27.731Z,18.00
2017-09-11T06:12:54.871Z,18.10
2017-09-11T06:15:22.035Z,18.10
2017-09-11T06:17:48.435Z,18.10
2017-09-11T06:20:14.830Z,18.10
2017-09-11T06:22:41.210Z,18.20
2017-09-11T06:25:08.355Z,18.20
2017-09-11T06:27:34.808Z,18.20
2017-09-11T06:30:01.191Z,18.20
2017-09-11T06:32:27.592Z,18.20
2017-09-11T06:34:53.962Z,18.20
2017-09-11T06:37:20.383Z,18.20
2017-09-11T06:39:46.792Z,18.20
2017-09-11T06:42:13.267Z,18.20
2017-09-11T06:44:39.651Z,18.20
2017-09-11T06:47:06.035Z,18.20
2017-09-11T06:49:32.453Z,18.20
2017-09-11T06:51:58.864Z,18.30
2017-09-11T06:54:25.299Z,18.30
2017-09-11T06:56:51.751Z,18.30
2017-09-11T06:59:18.143Z,18.30
2017-09-11T07:01:44.554Z,18.30
2017-09-11T07:04:11.671Z,18.40
2017-09-11T07:06:38.162Z,18.40
2017-09-11T07:09:04.591Z,18.30
2017-09-11T07:11:31.064Z,18.30
2017-09-11T07:13:57.543Z,18.30
2017-09-11T07:16:25.307Z,18.40
2017-09-11T07:18:52.440Z,18.40
2017-09-11T07:21:19.564Z,18.40
2017-09-11T07:23:45.951Z,18.40
2017-09-11T07:26:12.329Z,18.40
2017-09-11T07:28:38.734Z,18.40
2017-09-11T07:31:05.144Z,18.40
2017-09-11T07:33:31.526Z,18.30
2017-09-11T07:35:57.969Z,18.10
2017-09-11T07:38:24.354Z,18.20
2017-09-11T07:40:50.763Z,18.20
2017-09-11T07:43:17.171Z,18.30
2017-09-11T07:45:44.693Z,18.40
2017-09-11T07:48:11.127Z,18.40
2017-09-11T07:50:37.524Z,18.40
2017-09-11T07:53:03.943Z,18.40
2017-09-11T07:55:31.106Z,18.20
2017-09-11T07:57:58.247Z,18.20
2017-09-11T08:00:25.400Z,18.30
2017-09-11T08:02:52.626Z,18.30
2017-09-11T08:05:19.015Z,18.30
2017-09-11T08:07:45.391Z,18.30
2017-09-11T08:10:11.799Z,18.40
2017-09-11T08:12:38.178Z,18.40
2017-09-11T08:15:05.364Z,18.40
2017-09-11T08:17:31.784Z,18.40
2017-09-11T08:19:58.182Z,18.40
2017-09-11T08:22:25.339Z,18.50
2017-09-11T08:24:52.475Z,18.50
2017-09-11T08:27:19.650Z,18.40
2017-09-11T08:29:46.812Z,18.30
2017-09-11T08:32:13.202Z,18.20
2017-09-11T08:34:39.576Z,18.30
2017-09-11T08:37:05.988Z,18.40
2017-09-11T08:39:33.115Z,18.50
2017-09-11T08:41:59.520Z,18.50
2017-09-11T08:44:25.923Z,18.60
2017-09-11T08:46:52.312Z,18.60
2017-09-11T08:49:18.724Z,18.60
2017-09-11T08:51:45.107Z,18.60
2017-09-11T08:54:12.265Z,18.50
2017-09-11T08:56:38.686Z,18.50
2017-09-11T08:59:05.806Z,18.30
2017-09-11T09:01:32.850Z,18.30
2017-09-11T09:03:59.235Z,18.30
2017-09-11T09:06:25.635Z,18.30
2017-09-11T09:08:52.790Z,18.20
2017-09-11T09:11:19.903Z,18.30
2017-09-11T09:13:46.312Z,18.30
2017-09-11T09:16:12.687Z,18.40
2017-09-11T09:18:39.095Z,18.40
2017-09-11T09:21:05.483Z,18.30
2017-09-11T09:23:31.897Z,18.20
2017-09-11T09:25:59.039Z,18.30
2017-09-11T09:28:26.169Z,18.40
2017-09-11T09:30:52.540Z,18.30
2017-09-11T09:33:18.951Z,18.40
2017-09-11T09:35:46.087Z,18.40
2017-09-11T09:38:12.469Z,18.40
2017-09-11T09:40:38.881Z,18.40
2017-09-11T09:43:06.048Z,18.30
2017-09-11T09:45:32.467Z,18.30
2017-09-11T09:47:58.922Z,18.40
2017-09-11T09:50:25.295Z,18.30
2017-09-11T09:52:51.711Z,18.30
2017-09-11T09:55:18.124Z,18.30
2017-09-11T09:57:44.540Z,18.40
2017-09-11T10:00:10.928Z,18.40
2017-09-11T10:02:44.231Z,18.40
2017-09-11T10:05:10.640Z,18.40
2017-09-11T10:07:37.039Z,18.40
2017-09-11T10:10:03.448Z,18.40
2017-09-11T10:12:30.578Z,18.50
2017-09-11T10:14:56.987Z,18.50
2017-09-11T10:17:23.394Z,18.50
2017-09-11T10:19:49.770Z,18.60
2017-09-11T10:22:16.212Z,18.60
2017-09-11T10:24:43.343Z,18.50
2017-09-11T10:27:09.755Z,18.50
2017-09-11T10:29:36.153Z,18.50
2017-09-11T10:32:41.435Z,18.50
2017-09-11T10:35:07.827Z,18.60
2017-09-11T10:37:34.231Z,18.60
2017-09-11T10:40:00.656Z,18.60
2017-09-11T10:42:27.040Z,18.70
2017-09-11T10:44:53.439Z,18.70
2017-09-11T10:47:20.567Z,18.70
2017-09-11T10:49:46.980Z,18.70
2017-09-11T10:52:14.127Z,18.60
2017-09-11T10:54:40.538Z,18.60
2017-09-11T10:57:06.969Z,18.50
2017-09-11T10:59:33.372Z,18.60
2017-09-11T11:02:00.493Z,18.70
2017-09-11T11:04:26.925Z,18.70
2017-09-11T11:06:53.707Z,18.70
2017-09-11T11:09:20.088Z,18.60
2017-09-11T11:11:46.488Z,18.60
2017-09-11T11:14:12.913Z,18.70
2017-09-11T11:16:39.312Z,18.70
2017-09-11T11:19:05.708Z,18.80
2017-09-11T11:21:32.128Z,18.70
2017-09-11T11:23:58.517Z,18.70
2017-09-11T11:26:24.940Z,18.80
2017-09-11T11:28:51.344Z,18.80
2017-09-11T11:31:17.735Z,18.80
2017-09-11T11:33:44.112Z,18.90
2017-09-11T11:36:10.548Z,18.90
2017-09-11T11:38:36.946Z,18.90
2017-09-11T11:41:03.335Z,18.90
2017-09-11T11:43:29.769Z,18.80
2017-09-11T11:45:56.196Z,18.90
2017-09-11T11:48:22.575Z,18.90
2017-09-11T11:50:48.997Z,18.90
2017-09-11T11:53:15.397Z,18.80
2017-09-11T11:55:41.872Z,18.80
2017-09-11T11:58:08.256Z,18.90
2017-09-11T12:00:34.672Z,18.90
2017-09-11T12:03:01.078Z,19.00
2017-09-11T12:05:27.493Z,19.00
2017-09-11T12:07:53.921Z,19.00
2017-09-11T12:10:20.308Z,19.00
2017-09-11T12:12:46.683Z,19.00
2017-09-11T12:15:13.819Z,19.00
2017-09-11T12:17:40.944Z,18.90
2017-09-11T12:20:07.340Z,18.90
2017-09-11T12:22:33.718Z,18.90
2017-09-11T12:25:00.129Z,18.90
2017-09-11T12:27:26.592Z,18.80
2017-09-11T12:29:53.019Z,18.90
2017-09-11T12:32:19.452Z,18.90
2017-09-11T12:34:45.841Z,19.00
2017-09-11T12:37:12.227Z,19.00
2017-09-11T12:39:39.375Z,18.90
2017-09-11T12:42:06.547Z,18.90
2017-09-11T12:44:32.904Z,18.90
2017-09-11T12:46:59.307Z,18.90
2017-09-11T12:49:26.535Z,19.00
2017-09-11T12:51:53.712Z,19.10
2017-09-11T12:54:20.112Z,19.00
2017-09-11T12:56:46.544Z,19.10
2017-09-11T12:59:12.954Z,19.10
2017-09-11T13:01:39.332Z,19.00
2017-09-11T13:04:06.489Z,18.90
2017-09-11T13:06:32.887Z,18.90
2017-09-11T13:08:59.331Z,18.90
2017-09-11T13:11:25.699Z,18.90
2017-09-11T13:13:52.076Z,19.00
2017-09-11T13:16:18.492Z,19.10
2017-09-11T13:18:44.884Z,19.20
2017-09-11T13:21:11.271Z,19.20
2017-09-11T13:23:37.663Z,19.30
2017-09-11T13:26:04.039Z,19.30
2017-09-11T13:28:30.460Z,19.30
2017-09-11T13:30:56.832Z,19.20
2017-09-11T13:33:23.982Z,19.20
2017-09-11T13:35:51.161Z,19.30
2017-09-11T13:38:17.584Z,19.30
2017-09-11T13:40:44.727Z,19.20
2017-09-11T13:43:11.127Z,19.10
2017-09-11T13:45:37.572Z,19.10
2017-09-11T13:48:04.708Z,19.10
2017-09-11T13:50:31.100Z,19.10
2017-09-11T13:52:57.502Z,19.10
2017-09-11T13:55:23.952Z,19.20
2017-09-11T13:57:50.358Z,19.20
2017-09-11T14:00:17.480Z,19.00
2017-09-11T14:02:43.876Z,19.00
2017-09-11T14:05:10.290Z,19.00
2017-09-11T14:07:36.715Z,18.90
2017-09-11T14:10:03.147Z,19.00
2017-09-11T14:12:29.567Z,19.10
2017-09-11T14:14:56.724Z,19.10
2017-09-11T14:17:23.909Z,19.10
2017-09-11T14:19:50.330Z,19.00
2017-09-11T14:22:16.749Z,19.20
2017-09-11T14:24:43.195Z,19.10
2017-09-11T14:27:09.636Z,19.20
2017-09-11T14:29:36.024Z,19.10
2017-09-11T14:32:02.711Z,19.10
2017-09-11T14:34:29.243Z,19.10
2017-09-11T14:36:55.727Z,19.00
2017-09-11T14:39:22.932Z,18.80
2017-09-11T14:41:49.308Z,18.80
2017-09-11T14:44:15.715Z,18.80
2017-09-11T14:46:42.120Z,18.80
2017-09-11T14:49:08.532Z,18.90
2017-09-11T14:51:34.955Z,18.80
2017-09-11T14:54:02.204Z,18.90
2017-09-11T14:56:29.358Z,19.10
2017-09-11T14:58:56.528Z,19.20
2017-09-11T15:01:23.174Z,19.20
2017-09-11T15:03:49.732Z,19.20
2017-09-11T15:06:16.207Z,19.30
2017-09-11T15:08:43.406Z,19.30
2017-09-11T15:11:09.864Z,19.20
2017-09-11T15:13:36.298Z,19.10
2017-09-11T15:16:02.732Z,19.10
2017-09-11T15:18:29.135Z,18.90
2017-09-11T15:20:55.843Z,18.90
2017-09-11T15:23:22.972Z,19.00
2017-09-11T15:25:49.348Z,19.00
2017-09-11T15:28:15.767Z,19.10
2017-09-11T15:30:42.150Z,19.20
2017-09-11T15:33:08.560Z,19.20
2017-09-11T15:35:34.998Z,19.20
2017-09-11T15:38:01.419Z,19.30
2017-09-11T15:40:27.815Z,19.30
2017-09-11T15:42:54.943Z,19.20
2017-09-11T15:45:21.343Z,19.20
2017-09-11T15:47:47.780Z,19.20
2017-09-11T15:50:14.216Z,19.20
2017-09-11T15:52:40.636Z,19.20
2017-09-11T15:55:07.043Z,19.10
2017-09-11T15:57:33.523Z,19.00
2017-09-11T15:59:59.931Z,19.00
2017-09-11T16:02:26.302Z,18.90
2017-09-11T16:04:52.702Z,19.00
2017-09-11T16:07:19.107Z,19.00
2017-09-11T16:09:45.514Z,19.00
2017-09-11T16:12:11.924Z,19.10
2017-09-11T16:14:38.326Z,19.10
2017-09-11T16:17:04.731Z,19.10
2017-09-11T16:19:31.184Z,19.10
2017-09-11T16:21:57.583Z,19.10
2017-09-11T16:24:24.739Z,19.10
2017-09-11T16:26:51.156Z,19.10
2017-09-11T16:29:18.371Z,19.10
2017-09-11T16:31:44.749Z,19.10
2017-09-11T16:34:11.868Z,19.10
2017-09-11T16:36:38.298Z,19.10
2017-09-11T16:39:04.727Z,19.00
2017-09-11T16:41:31.942Z,19.00
2017-09-11T16:43:58.347Z,19.00
2017-09-11T16:46:25.549Z,19.00
2017-09-11T16:48:51.983Z,19.00
2017-09-11T16:51:18.396Z,19.10
2017-09-11T16:53:44.790Z,19.10
2017-09-11T16:56:11.996Z,19.00
2017-09-11T16:58:38.400Z,19.00
2017-09-11T17:01:04.867Z,19.00
2017-09-11T17:03:31.247Z,19.00
2017-09-11T17:05:58.376Z,19.00
2017-09-11T17:08:25.559Z,18.90
2017-09-11T17:10:51.946Z,18.90
2017-09-11T17:13:18.400Z,18.90
2017-09-11T17:15:44.805Z,18.90
2017-09-11T17:18:11.211Z,18.90
2017-09-11T17:20:37.647Z,18.90
2017-09-11T17:23:04.074Z,18.90
2017-09-11T17:25:30.476Z,18.90
2017-09-11T17:27:57.638Z,18.90
2017-09-11T17:30:24.170Z,19.00
2017-09-11T17:32:50.705Z,19.00
2017-09-11T17:35:17.112Z,18.90
2017-09-11T17:37:43.575Z,18.90
2017-09-11T17:40:10.832Z,18.90
2017-09-11T17:42:37.268Z,18.90
2017-09-11T17:45:03.698Z,18.90
2017-09-11T17:47:30.166Z,18.90
2017-09-11T17:49:56.544Z,18.90
2017-09-11T17:52:23.768Z,19.00
2017-09-11T17:54:50.176Z,19.00
2017-09-11T17:57:16.636Z,18.90
2017-09-11T17:59:43.027Z,18.90
2017-09-11T18:02:09.452Z,18.90
2017-09-11T18:04:35.894Z,18.90
2017-09-11T18:07:02.300Z,18.90
2017-09-11T18:09:29.476Z,18.90
2017-09-11T18:11:55.926Z,18.90
2017-09-11T18:14:22.343Z,18.90
2017-09-11T18:16:48.746Z,18.80
2017-09-11T18:19:15.919Z,18.70
2017-09-11T18:21:42.344Z,18.70
2017-09-11T18:24:08.788Z,18.80
2017-09-11T18:26:35.197Z,18.80
2017-09-11T18:29:02.364Z,18.80
2017-09-11T18:31:28.888Z,18.80
2017-09-11T18:33:55.304Z,18.80
2017-09-11T18:36:22.472Z,18.70
2017-09-11T18:38:49.132Z,18.70
2017-09-11T18:41:16.277Z,18.70
2017-09-11T18:43:42.741Z,18.70
2017-09-11T18:46:09.138Z,18.80
2017-09-11T18:48:35.531Z,18.80
2017-09-11T18:51:01.951Z,18.80
2017-09-11T18:53:28.359Z,18.80
2017-09-11T18:55:54.779Z,18.80
2017-09-11T18:58:21.188Z,18.80
2017-09-11T19:00:47.608Z,18.70
2017-09-11T19:03:14.772Z,18.70
2017-09-11T19:05:41.171Z,18.70
2017-09-11T19:08:08.412Z,18.70
2017-09-11T19:10:34.872Z,18.60
2017-09-11T19:13:02.041Z,18.60
2017-09-11T19:15:28.472Z,18.60
2017-09-11T19:17:55.595Z,18.50
2017-09-11T19:20:21.995Z,18.50
2017-09-11T19:22:48.984Z,18.50
2017-09-11T19:25:16.114Z,18.50
2017-09-11T19:27:42.536Z,18.40
2017-09-11T19:30:08.956Z,18.50
2017-09-11T19:32:35.367Z,18.50
2017-09-11T19:35:01.773Z,18.50
2017-09-11T19:37:28.207Z,18.50
2017-09-11T19:39:55.357Z,18.50
2017-09-11T19:42:21.764Z,18.50
2017-09-11T19:44:48.152Z,18.50
2017-09-11T19:47:14.526Z,18.50
2017-09-11T19:49:40.956Z,18.40
2017-09-11T19:52:07.402Z,18.40
2017-09-11T19:54:34.535Z,18.30
2017-09-11T19:57:00.969Z,18.30
2017-09-11T19:59:27.375Z,18.30
2017-09-11T20:01:53.767Z,18.30
2017-09-11T20:04:20.191Z,18.30
2017-09-11T20:06:47.498Z,18.10
2017-09-11T20:09:13.923Z,18.10
2017-09-11T20:11:40.339Z,18.10
2017-09-11T20:14:06.745Z,18.00
2017-09-11T20:16:33.939Z,17.60
2017-09-11T20:19:00.367Z,17.60
2017-09-11T20:21:26.785Z,17.60
2017-09-11T20:23:53.164Z,17.50
2017-09-11T20:26:19.595Z,17.50
2017-09-11T20:28:45.980Z,17.40
2017-09-11T20:31:12.380Z,17.30
2017-09-11T20:33:38.784Z,17.20
2017-09-11T20:36:05.196Z,17.10
2017-09-11T20:38:31.631Z,17.00
2017-09-11T20:40:58.045Z,16.90
2017-09-11T20:43:24.459Z,16.90
2017-09-11T20:45:50.919Z,16.80
2017-09-11T20:48:17.355Z,16.70
2017-09-11T20:50:43.815Z,16.70
2017-09-11T20:53:10.227Z,16.70
2017-09-11T20:55:36.664Z,16.60
2017-09-11T20:58:03.068Z,16.60
2017-09-11T21:00:29.491Z,16.50
2017-09-11T21:02:56.711Z,16.50
2017-09-11T21:05:23.099Z,16.50
2017-09-11T21:07:49.510Z,16.50
2017-09-11T21:10:15.993Z,16.50
2017-09-11T21:12:42.389Z,16.40
2017-09-11T21:15:08.790Z,16.30
2017-09-11T21:17:35.968Z,16.30
2017-09-11T21:20:02.408Z,16.30
2017-09-11T21:22:28.810Z,16.40
2017-09-11T21:24:55.955Z,16.40
2017-09-11T21:27:23.080Z,16.40
2017-09-11T21:29:49.519Z,16.40
2017-09-11T21:32:15.927Z,16.40
2017-09-11T21:34:43.055Z,16.40
2017-09-11T21:37:09.456Z,16.40
2017-09-11T21:39:36.612Z,16.50
2017-09-11T21:42:03.743Z,16.50
2017-09-11T21:44:30.119Z,16.40
2017-09-11T21:46:56.524Z,16.50
2017-09-11T21:49:23.708Z,16.50
2017-09-11T21:51:50.095Z,16.50
2017-09-11T21:54:16.513Z,16.40
2017-09-11T21:56:42.943Z,16.50
2017-09-11T21:59:09.339Z,16.40
2017-09-11T22:01:35.731Z,16.40
2017-09-11T22:04:02.898Z,16.40
2017-09-11T22:06:30.022Z,16.40
2017-09-11T22:08:56.456Z,16.40
2017-09-11T22:11:22.839Z,16.40
2017-09-11T22:13:49.276Z,16.50
2017-09-11T22:16:15.699Z,16.60
2017-09-11T22:18:42.079Z,16.50
2017-09-11T22:21:08.469Z,16.50
2017-09-11T22:23:34.835Z,16.50
2017-09-11T22:26:01.245Z,16.50
2017-09-11T22:28:27.660Z,16.50
2017-09-11T22:30:54.059Z,16.50
2017-09-11T22:33:21.208Z,16.40
2017-09-11T22:35:48.327Z,16.50
2017-09-11T22:38:14.770Z,16.50
2017-09-11T22:40:41.178Z,16.40
2017-09-11T22:43:07.568Z,16.40
2017-09-11T22:45:33.956Z,16.40
2017-09-11T22:48:00.351Z,16.40
2017-09-11T22:50:26.816Z,16.50
2017-09-11T22:52:53.191Z,16.70
2017-09-11T22:55:20.399Z,16.80
2017-09-11T22:57:46.795Z,16.70
2017-09-11T23:00:13.187Z,16.80
2017-09-11T23:02:39.615Z,16.90
2017-09-11T23:05:05.995Z,16.90
2017-09-11T23:07:32.461Z,17.00
2017-09-11T23:09:58.832Z,17.20
2017-09-11T23:12:25.971Z,17.20
2017-09-11T23:14:52.375Z,17.20
2017-09-11T23:17:18.787Z,17.20
2017-09-11T23:19:45.204Z,17.20
2017-09-11T23:22:11.584Z,17.20
2017-09-11T23:24:38.004Z,17.20
2017-09-11T23:27:04.416Z,17.20
2017-09-11T23:29:30.840Z,17.10
2017-09-11T23:31:57.243Z,17.10
2017-09-11T23:34:24.363Z,17.20
2017-09-11T23:36:50.792Z,17.20
2017-09-11T23:39:17.176Z,17.10
2017-09-11T23:41:43.572Z,17.10
2017-09-11T23:44:09.973Z,17.20
2017-09-11T23:46:37.098Z,17.10
2017-09-11T23:49:03.507Z,17.10
2017-09-11T23:51:30.626Z,17.20
2017-09-11T23:53:57.047Z,17.20
2017-09-11T23:56:23.467Z,17.20
2017-09-11T23:58:49.848Z,17.20
